createdAt,value
2022-10-23T00:01:48.635Z,93.13
2022-10-23T00:04:20.573Z,85.85
2022-10-23T00:09:18.293Z,96.45
2022-10-23T00:11:51.234Z,84.75
2022-10-23T00:14:25.670Z,87.40
2022-10-23T00:16:55.920Z,81.07
2022-10-23T00:19:25.889Z,77.18
2022-10-23T00:21:53.215Z,79.00
2022-10-23T00:24:25.015Z,78.63
2022-10-23T00:26:52.561Z,70.90
2022-10-23T00:29:21.887Z,72.15
2022-10-23T00:31:51.821Z,73.50
2022-10-23T00:34:25.921Z,68.53
2022-10-23T00:36:56.213Z,72.90
2022-10-23T00:39:28.650Z,73.97
2022-10-23T00:41:58.849Z,75.10
2022-10-23T00:44:28.924Z,72.80
2022-10-23T00:46:59.890Z,73.65
2022-10-23T00:49:33.580Z,67.80
2022-10-23T00:52:09.625Z,79.20
2022-10-23T00:54:39.813Z,67.22
2022-10-23T00:57:12.198Z,69.95
2022-10-23T01:02:07.696Z,76.60
2022-10-23T01:04:37.832Z,71.45
2022-10-23T01:07:32.490Z,81.00
2022-10-23T01:10:30.815Z,66.40
2022-10-23T01:13:21.141Z,65.95
2022-10-23T01:16:07.750Z,64.63
2022-10-23T01:19:00.428Z,63.75
2022-10-23T01:22:05.000Z,65.13
2022-10-23T01:24:42.395Z,66.47
2022-10-23T01:27:20.947Z,63.28
2022-10-23T01:30:06.427Z,68.10
2022-10-23T01:32:49.158Z,60.05
2022-10-23T01:35:28.681Z,59.00
2022-10-23T01:38:16.583Z,61.38
2022-10-23T01:41:07.319Z,62.72
2022-10-23T01:43:52.333Z,58.15
2022-10-23T01:46:25.156Z,62.47
2022-10-23T01:48:59.106Z,62.83
2022-10-23T01:51:28.674Z,62.53
2022-10-23T01:54:09.111Z,62.40
2022-10-23T01:56:39.044Z,68.45
2022-10-23T01:59:10.874Z,60.50
2022-10-23T02:01:48.214Z,64.78
2022-10-23T02:04:22.135Z,53.83
2022-10-23T02:06:52.137Z,55.47
2022-10-23T02:09:19.411Z,63.75
2022-10-23T02:12:23.777Z,62.25
2022-10-23T02:14:56.445Z,64.55
2022-10-23T02:17:43.783Z,61.42
2022-10-23T02:20:26.106Z,58.95
2022-10-23T02:23:03.404Z,61.05
2022-10-23T02:25:44.070Z,68.05
2022-10-23T02:28:19.450Z,63.03
2022-10-23T02:30:53.633Z,60.70
2022-10-23T02:35:52.449Z,62.50
2022-10-23T02:38:42.446Z,62.33
2022-10-23T02:41:44.285Z,60.30
2022-10-23T02:44:28.141Z,74.40
2022-10-23T02:47:17.122Z,65.72
2022-10-23T02:50:03.310Z,66.82
2022-10-23T02:52:35.454Z,65.55
2022-10-23T02:58:16.718Z,70.13
2022-10-23T03:00:52.342Z,73.57
2022-10-23T03:03:30.592Z,74.72
2022-10-23T03:05:58.180Z,69.55
2022-10-23T03:08:28.579Z,65.78
2022-10-23T03:10:56.663Z,79.13
2022-10-23T03:13:26.662Z,76.20
2022-10-23T03:18:28.497Z,79.30
2022-10-23T03:20:59.230Z,63.85
2022-10-23T03:23:33.591Z,66.75
2022-10-23T03:26:01.609Z,67.32
2022-10-23T03:28:38.069Z,70.03
2022-10-23T03:31:07.678Z,68.97
2022-10-23T03:33:41.611Z,76.43
2022-10-23T03:36:13.635Z,77.07
2022-10-23T03:38:40.757Z,71.82
2022-10-23T03:41:10.558Z,66.80
2022-10-23T03:43:40.073Z,69.80
2022-10-23T03:46:09.845Z,72.50
2022-10-23T03:48:39.189Z,71.90
2022-10-23T03:51:09.322Z,71.85
2022-10-23T03:53:42.994Z,77.05
2022-10-23T03:56:10.313Z,68.60
2022-10-23T03:58:39.746Z,75.32
2022-10-23T04:01:07.610Z,70.55
2022-10-23T04:03:36.621Z,68.65
2022-10-23T04:06:09.215Z,72.43
2022-10-23T04:08:38.997Z,72.82
2022-10-23T04:11:13.205Z,70.97
2022-10-23T04:13:47.546Z,69.45
2022-10-23T04:16:19.873Z,73.45
2022-10-23T04:18:49.461Z,74.80
2022-10-23T04:21:21.180Z,71.47
2022-10-23T04:23:48.353Z,78.28
2022-10-23T04:26:23.065Z,78.30
2022-10-23T04:28:54.273Z,70.90
2022-10-23T04:31:23.960Z,71.05
2022-10-23T04:33:55.869Z,74.50
2022-10-23T04:36:45.631Z,76.10
2022-10-23T04:39:23.181Z,84.28
2022-10-23T04:44:19.710Z,77.43
2022-10-23T04:46:47.057Z,89.90
2022-10-23T04:49:16.667Z,80.30
2022-10-23T04:51:50.640Z,86.13
2022-10-23T04:54:44.185Z,79.97
2022-10-23T04:57:35.594Z,85.32
2022-10-23T05:00:10.913Z,84.53
2022-10-23T05:02:50.676Z,88.28
2022-10-23T05:05:18.484Z,97.70
2022-10-23T05:08:05.946Z,83.25
2022-10-23T05:10:49.710Z,82.50
2022-10-23T05:13:26.561Z,88.85
2022-10-23T05:15:53.760Z,90.38
2022-10-23T05:18:39.352Z,88.00
2022-10-23T05:21:16.655Z,94.38
2022-10-23T05:23:54.761Z,86.70
2022-10-23T05:26:25.266Z,84.72
2022-10-23T05:28:56.318Z,81.95
2022-10-23T05:31:26.245Z,74.13
2022-10-23T05:34:09.961Z,79.47
2022-10-23T05:36:45.472Z,76.60
2022-10-23T05:39:21.650Z,74.50
2022-10-23T05:41:54.976Z,70.38
2022-10-23T05:44:24.913Z,65.93
2022-10-23T05:47:05.329Z,71.68
2022-10-23T05:49:53.794Z,69.68
2022-10-23T05:52:51.766Z,61.50
2022-10-23T05:55:44.963Z,62.25
2022-10-23T05:58:36.960Z,67.63
2022-10-23T06:01:32.901Z,64.38
2022-10-23T06:04:05.605Z,65.40
2022-10-23T06:06:49.546Z,58.30
2022-10-23T06:09:17.163Z,62.67
2022-10-23T06:11:50.471Z,67.07
2022-10-23T06:14:23.145Z,53.90
2022-10-23T06:16:52.308Z,62.65
2022-10-23T06:19:24.626Z,57.47
2022-10-23T06:22:02.595Z,52.53
2022-10-23T06:24:45.232Z,56.67
2022-10-23T06:27:14.259Z,55.05
2022-10-23T06:29:45.131Z,43.60
2022-10-23T06:32:12.450Z,37.25
2022-10-23T06:34:41.890Z,41.97
2022-10-23T06:37:11.791Z,39.20
2022-10-23T06:39:59.191Z,36.83
2022-10-23T06:42:46.762Z,36.67
2022-10-23T06:45:36.793Z,40.03
2022-10-23T06:48:26.754Z,53.30
2022-10-23T06:51:08.470Z,45.42
2022-10-23T06:53:41.910Z,46.25
2022-10-23T06:56:29.275Z,43.88
2022-10-23T06:58:57.209Z,48.85
2022-10-23T07:01:26.934Z,47.65
2022-10-23T07:06:26.334Z,50.78
2022-10-23T07:08:57.016Z,51.75
2022-10-23T07:11:46.996Z,50.03
2022-10-23T07:14:14.868Z,49.33
2022-10-23T07:16:45.798Z,44.87
2022-10-23T07:19:13.633Z,42.13
2022-10-23T07:22:13.315Z,44.95
2022-10-23T07:24:54.842Z,44.22
2022-10-23T07:27:29.499Z,43.58
2022-10-23T07:30:00.854Z,40.92
2022-10-23T07:32:35.027Z,38.45
2022-10-23T07:35:05.780Z,46.20
2022-10-23T07:37:39.866Z,46.83
2022-10-23T07:40:08.714Z,38.47
2022-10-23T07:42:45.467Z,39.30
2022-10-23T07:47:52.740Z,42.00
2022-10-23T07:50:23.082Z,39.90
2022-10-23T07:52:52.626Z,33.80
2022-10-23T07:55:27.425Z,36.80
2022-10-23T07:58:07.741Z,26.38
2022-10-23T08:00:52.803Z,40.20
2022-10-23T08:03:32.269Z,38.97
2022-10-23T08:06:00.906Z,36.25
2022-10-23T08:08:28.764Z,29.42
2022-10-23T08:11:02.035Z,36.45
2022-10-23T08:13:35.207Z,34.47
2022-10-23T08:16:06.555Z,36.42
2022-10-23T08:18:56.375Z,37.40
2022-10-23T08:21:24.154Z,32.58
2022-10-23T08:23:58.691Z,41.67
2022-10-23T08:26:29.504Z,30.08
2022-10-23T08:29:03.639Z,33.63
2022-10-23T08:31:40.202Z,35.80
2022-10-23T08:34:24.655Z,31.75
2022-10-23T08:36:56.171Z,32.75
2022-10-23T08:39:25.790Z,31.20
2022-10-23T08:42:27.175Z,36.53
2022-10-23T08:45:12.562Z,30.02
2022-10-23T08:47:49.018Z,39.43
2022-10-23T08:51:25.633Z,32.42
2022-10-23T08:53:56.567Z,28.58
2022-10-23T08:56:32.826Z,34.17
2022-10-23T08:59:32.904Z,32.63
2022-10-23T09:02:08.222Z,28.60
2022-10-23T09:04:40.525Z,35.72
2022-10-23T09:10:14.052Z,25.13
2022-10-23T09:12:43.622Z,28.90
2022-10-23T09:15:13.672Z,35.40
2022-10-23T09:17:45.698Z,32.75
2022-10-23T09:20:21.884Z,27.38
2022-10-23T09:22:55.573Z,22.17
2022-10-23T09:25:35.030Z,29.40
2022-10-23T09:28:05.740Z,27.85
2022-10-23T09:30:41.992Z,26.33
2022-10-23T09:33:22.328Z,26.63
2022-10-23T09:35:57.168Z,22.10
2022-10-23T09:41:08.093Z,24.02
2022-10-23T09:43:37.416Z,24.27
2022-10-23T09:46:10.677Z,31.75
2022-10-23T09:48:47.207Z,18.60
2022-10-23T09:51:20.846Z,29.38
2022-10-23T09:53:51.182Z,23.60
2022-10-23T09:56:24.790Z,27.77
2022-10-23T09:59:22.489Z,21.65
2022-10-23T10:01:58.557Z,21.80
2022-10-23T10:04:44.627Z,17.65
2022-10-23T10:07:24.467Z,20.55
2022-10-23T10:09:58.123Z,30.90
2022-10-23T10:12:50.295Z,20.00
2022-10-23T10:15:19.561Z,32.20
2022-10-23T10:18:18.114Z,19.80
2022-10-23T10:20:53.035Z,20.20
2022-10-23T10:23:31.713Z,16.88
2022-10-23T10:26:26.114Z,21.77
2022-10-23T10:29:30.814Z,19.52
2022-10-23T10:32:32.215Z,20.38
2022-10-23T10:35:04.973Z,24.38
2022-10-23T10:37:45.975Z,20.23
2022-10-23T10:40:41.302Z,18.48
2022-10-23T10:43:36.763Z,24.25
2022-10-23T10:46:25.762Z,22.02
2022-10-23T10:49:10.577Z,16.33
2022-10-23T10:51:49.822Z,26.42
2022-10-23T10:54:35.756Z,28.67
2022-10-23T10:57:26.845Z,26.33
2022-10-23T10:59:57.523Z,20.38
2022-10-23T11:02:41.571Z,16.45
2022-10-23T11:05:26.930Z,21.75
2022-10-23T11:08:16.508Z,19.42
2022-10-23T11:10:50.428Z,20.52
2022-10-23T11:13:36.479Z,27.48
2022-10-23T11:16:12.464Z,19.35
2022-10-23T11:18:45.810Z,21.08
2022-10-23T11:22:07.731Z,20.45
2022-10-23T11:25:31.896Z,19.90
2022-10-23T11:28:37.214Z,22.13
2022-10-23T11:31:11.700Z,19.23
2022-10-23T11:34:11.884Z,19.05
2022-10-23T11:36:50.847Z,16.08
2022-10-23T11:39:40.098Z,22.00
2022-10-23T11:42:29.459Z,23.85
2022-10-23T11:45:01.607Z,20.05
2022-10-23T11:47:40.317Z,21.63
2022-10-23T11:50:07.725Z,15.70
2022-10-23T11:53:13.593Z,24.58
2022-10-23T11:56:17.013Z,20.33
2022-10-23T11:58:53.580Z,14.25
2022-10-23T12:01:31.886Z,19.00
2022-10-23T12:04:17.412Z,16.98
2022-10-23T12:06:59.351Z,14.02
2022-10-23T12:09:52.363Z,19.52
2022-10-23T12:12:29.616Z,15.77
2022-10-23T12:15:29.287Z,14.57
2022-10-23T12:18:15.513Z,12.52
2022-10-23T12:20:56.974Z,14.35
2022-10-23T12:23:30.988Z,19.55
2022-10-23T12:28:56.355Z,14.35
2022-10-23T12:32:05.795Z,12.90
2022-10-23T12:35:04.746Z,16.95
2022-10-23T12:38:15.088Z,16.23
2022-10-23T12:41:02.435Z,15.63
2022-10-23T12:43:36.330Z,19.05
2022-10-23T12:46:26.763Z,12.30
2022-10-23T12:48:58.121Z,16.17
2022-10-23T12:51:35.249Z,14.73
2022-10-23T12:54:03.870Z,14.00
2022-10-23T12:56:37.306Z,16.10
2022-10-23T12:59:13.602Z,21.88
2022-10-23T13:01:43.271Z,12.88
2022-10-23T13:04:44.942Z,14.23
2022-10-23T13:07:17.422Z,9.77
2022-10-23T13:09:46.367Z,13.93
2022-10-23T13:12:30.730Z,8.45
2022-10-23T13:15:03.348Z,12.43
2022-10-23T13:17:54.193Z,9.68
2022-10-23T13:20:26.588Z,14.68
2022-10-23T13:23:26.502Z,12.35
2022-10-23T13:26:00.819Z,12.65
2022-10-23T13:28:44.813Z,8.82
2022-10-23T13:31:17.187Z,13.55
2022-10-23T13:34:01.458Z,12.60
2022-10-23T13:36:34.512Z,11.95
2022-10-23T13:39:14.082Z,11.93
2022-10-23T13:41:47.067Z,6.43
2022-10-23T13:44:21.355Z,11.10
2022-10-23T13:46:56.344Z,7.90
2022-10-23T13:49:26.121Z,8.18
2022-10-23T13:51:58.890Z,8.57
2022-10-23T13:57:03.659Z,10.18
2022-10-23T13:59:33.243Z,12.88
2022-10-23T14:02:05.807Z,16.75
2022-10-23T14:04:37.676Z,14.50
2022-10-23T14:07:09.440Z,9.43
2022-10-23T14:09:39.028Z,11.43
2022-10-23T14:12:09.022Z,10.63
2022-10-23T14:14:41.119Z,12.30
2022-10-23T14:17:08.576Z,14.45
2022-10-23T14:19:38.273Z,14.20
2022-10-23T14:22:05.594Z,14.63
2022-10-23T14:24:40.443Z,19.08
2022-10-23T14:27:12.336Z,11.00
2022-10-23T14:29:42.107Z,15.30
2022-10-23T14:32:11.904Z,10.27
2022-10-23T14:34:42.466Z,13.73
2022-10-23T14:37:12.444Z,12.05
2022-10-23T14:39:39.581Z,11.80
2022-10-23T14:42:09.358Z,12.05
2022-10-23T14:44:36.622Z,12.43
2022-10-23T14:47:08.620Z,14.05
2022-10-23T14:49:40.182Z,13.68
2022-10-23T14:52:10.073Z,14.70
2022-10-23T14:54:40.120Z,31.58
2022-10-23T14:57:12.145Z,12.48
2022-10-23T14:59:39.315Z,12.02
2022-10-23T15:02:11.621Z,13.90
2022-10-23T15:04:41.526Z,13.57
2022-10-23T15:07:08.859Z,13.07
2022-10-23T15:09:39.661Z,15.73
2022-10-23T15:12:10.598Z,15.65
2022-10-23T15:14:45.097Z,14.23
2022-10-23T15:17:15.537Z,12.52
2022-10-23T15:19:47.797Z,13.18
2022-10-23T15:22:18.991Z,12.23
2022-10-23T15:24:52.134Z,11.75
2022-10-23T15:27:22.548Z,21.05
2022-10-23T15:29:52.079Z,17.63
2022-10-23T15:32:19.479Z,19.35
2022-10-23T15:34:49.698Z,24.73
2022-10-23T15:37:22.062Z,25.23
2022-10-23T15:39:52.405Z,16.55
2022-10-23T15:42:19.835Z,16.73
2022-10-23T15:44:49.786Z,14.55
2022-10-23T15:47:19.335Z,30.30
2022-10-23T15:49:46.544Z,24.25
2022-10-23T15:52:13.913Z,21.75
2022-10-23T15:54:41.157Z,28.35
2022-10-23T15:57:10.209Z,103.53
2022-10-23T15:59:37.330Z,27.00
2022-10-23T16:02:07.600Z,26.38
2022-10-23T16:04:35.409Z,34.10
2022-10-23T16:07:04.870Z,17.98
2022-10-23T16:09:34.648Z,27.80
2022-10-23T16:12:07.014Z,33.72
2022-10-23T16:14:36.701Z,27.10
2022-10-23T16:17:04.118Z,37.70
2022-10-23T16:19:37.350Z,18.38
2022-10-23T16:22:10.148Z,22.45
2022-10-23T16:27:07.049Z,24.63
2022-10-23T16:29:39.480Z,20.15
2022-10-23T16:32:06.809Z,16.83
2022-10-23T16:34:34.006Z,16.63
2022-10-23T16:37:04.041Z,19.40
2022-10-23T16:39:48.845Z,22.88
2022-10-23T16:42:48.120Z,27.67
2022-10-23T16:45:34.361Z,35.15
2022-10-23T16:48:06.800Z,25.00
2022-10-23T16:53:15.409Z,25.15
2022-10-23T16:55:42.562Z,31.27
2022-10-23T16:58:12.135Z,29.65
2022-10-23T17:00:39.572Z,44.60
2022-10-23T17:03:07.019Z,49.22
2022-10-23T17:05:35.368Z,61.05
2022-10-23T17:08:12.096Z,45.05
2022-10-23T17:10:39.221Z,300.30
2022-10-23T17:13:09.249Z,79.97
2022-10-23T17:18:10.479Z,43.60
2022-10-23T17:23:09.629Z,38.35
2022-10-23T17:25:40.804Z,34.75
2022-10-23T17:28:12.604Z,37.45
2022-10-23T17:30:44.617Z,56.08
2022-10-23T17:35:45.291Z,47.70
2022-10-23T17:38:18.125Z,56.03
2022-10-23T17:40:47.448Z,41.08
2022-10-23T17:43:19.799Z,42.75
2022-10-23T17:45:51.831Z,42.17
2022-10-23T17:48:19.162Z,53.28
2022-10-23T17:51:00.145Z,52.70
2022-10-23T17:53:29.823Z,46.72
2022-10-23T17:55:56.970Z,48.03
2022-10-23T17:58:26.394Z,55.20
2022-10-23T18:00:58.215Z,69.27
2022-10-23T18:03:25.646Z,51.53
2022-10-23T18:05:57.157Z,51.53
2022-10-23T18:08:29.501Z,75.18
2022-10-23T18:13:26.071Z,51.10
2022-10-23T18:15:53.499Z,58.47
2022-10-23T18:18:23.133Z,47.25
2022-10-23T18:20:50.178Z,57.33
2022-10-23T18:23:17.487Z,59.30
2022-10-23T18:25:45.979Z,94.28
2022-10-23T18:28:13.251Z,94.20
2022-10-23T18:30:40.352Z,72.32
2022-10-23T18:33:12.624Z,73.85
2022-10-23T18:35:50.312Z,106.22
2022-10-23T18:38:22.337Z,144.32
2022-10-23T18:43:42.633Z,98.68
2022-10-23T18:46:14.480Z,87.95
2022-10-23T18:48:50.575Z,101.88
2022-10-23T18:51:23.974Z,102.80
2022-10-23T18:53:53.661Z,107.15
2022-10-23T18:56:26.733Z,98.72
2022-10-23T18:58:58.942Z,94.75
2022-10-23T19:01:34.362Z,94.55
2022-10-23T19:04:05.102Z,98.90
2022-10-23T19:06:37.341Z,82.93
2022-10-23T19:09:13.670Z,77.45
2022-10-23T19:11:43.875Z,80.55
2022-10-23T19:14:11.403Z,70.72
2022-10-23T19:16:53.313Z,79.20
2022-10-23T19:19:27.082Z,78.47
2022-10-23T19:21:57.408Z,64.20
2022-10-23T19:24:41.625Z,66.95
2022-10-23T19:27:08.948Z,59.78
2022-10-23T19:29:42.767Z,68.85
2022-10-23T19:32:12.664Z,59.25
2022-10-23T19:34:45.391Z,126.38
2022-10-23T19:39:46.891Z,53.22
2022-10-23T19:42:14.028Z,59.40
2022-10-23T19:44:43.876Z,59.67
2022-10-23T19:47:11.536Z,63.92
2022-10-23T19:49:39.238Z,57.35
2022-10-23T19:52:06.837Z,51.63
2022-10-23T19:54:34.248Z,52.97
2022-10-23T19:57:02.417Z,52.33
2022-10-23T19:59:32.150Z,57.13
2022-10-23T20:02:02.258Z,51.80
2022-10-23T20:04:29.801Z,56.90
2022-10-23T20:06:56.938Z,51.28
2022-10-23T20:09:29.357Z,59.17
2022-10-23T20:12:00.490Z,56.45
2022-10-23T20:14:28.042Z,71.47
2022-10-23T20:17:01.612Z,72.93
2022-10-23T20:19:31.156Z,56.78
2022-10-23T20:22:03.070Z,129.95
2022-10-23T20:24:31.186Z,61.38
2022-10-23T20:27:03.002Z,60.53
2022-10-23T20:29:33.126Z,54.63
2022-10-23T20:32:02.546Z,62.65
2022-10-23T20:34:34.731Z,56.22
2022-10-23T20:37:04.134Z,61.78
2022-10-23T20:39:35.736Z,61.35
2022-10-23T20:42:07.266Z,51.55
2022-10-23T20:44:39.312Z,51.38
2022-10-23T20:47:11.182Z,55.22
2022-10-23T20:49:43.014Z,47.40
2022-10-23T20:52:10.143Z,45.25
2022-10-23T20:54:38.196Z,45.53
2022-10-23T20:57:07.403Z,57.65
2022-10-23T20:59:41.899Z,46.13
2022-10-23T21:02:13.214Z,42.90
2022-10-23T21:04:40.682Z,42.53
2022-10-23T21:07:11.424Z,48.88
2022-10-23T21:09:43.189Z,43.15
2022-10-23T21:12:12.493Z,42.97
2022-10-23T21:14:42.253Z,42.95
2022-10-23T21:17:16.677Z,42.83
2022-10-23T21:19:44.197Z,37.58
2022-10-23T21:22:11.315Z,43.40
2022-10-23T21:24:40.815Z,38.58
2022-10-23T21:27:15.253Z,38.65
2022-10-23T21:29:54.171Z,40.83
2022-10-23T21:32:21.489Z,40.92
2022-10-23T21:34:55.066Z,41.83
2022-10-23T21:37:24.987Z,43.17
2022-10-23T21:39:54.365Z,40.22
2022-10-23T21:42:23.574Z,39.95
2022-10-23T21:44:53.746Z,44.05
2022-10-23T21:47:23.780Z,36.45
2022-10-23T21:50:01.206Z,36.90
2022-10-23T21:52:34.145Z,40.80
2022-10-23T21:55:01.406Z,39.53
2022-10-23T21:57:33.397Z,36.15
2022-10-23T22:02:32.335Z,32.28
2022-10-23T22:05:04.492Z,35.40
2022-10-23T22:07:31.957Z,40.72
2022-10-23T22:10:04.347Z,40.78
2022-10-23T22:12:34.472Z,36.15
2022-10-23T22:15:07.298Z,32.63
2022-10-23T22:17:34.679Z,45.92
2022-10-23T22:20:01.974Z,36.38
2022-10-23T22:22:33.649Z,35.30
2022-10-23T22:25:03.205Z,37.33
2022-10-23T22:27:32.659Z,33.88
2022-10-23T22:30:03.828Z,38.58
2022-10-23T22:32:31.831Z,38.60
2022-10-23T22:35:01.444Z,32.55
2022-10-23T22:37:30.623Z,37.08
2022-10-23T22:40:02.534Z,35.08
2022-10-23T22:42:33.962Z,34.03
2022-10-23T22:45:04.055Z,34.10
2022-10-23T22:47:31.111Z,34.75
2022-10-23T22:49:58.337Z,36.67
2022-10-23T22:52:25.477Z,37.30
2022-10-23T22:54:52.994Z,35.38
2022-10-23T22:59:57.055Z,34.97
2022-10-23T23:02:24.095Z,37.55
2022-10-23T23:04:55.977Z,37.75
2022-10-23T23:07:23.187Z,30.85
2022-10-23T23:09:50.547Z,33.80
2022-10-23T23:12:22.414Z,34.70
2022-10-23T23:14:52.228Z,36.20
2022-10-23T23:17:23.859Z,33.53
2022-10-23T23:19:51.330Z,28.95
2022-10-23T23:22:20.661Z,34.28
2022-10-23T23:24:52.795Z,33.70
2022-10-23T23:27:22.380Z,32.38
2022-10-23T23:29:49.681Z,30.13
2022-10-23T23:32:24.339Z,35.95
2022-10-23T23:34:54.098Z,31.48
2022-10-23T23:37:24.111Z,32.60
2022-10-23T23:39:54.018Z,35.83
2022-10-23T23:42:23.580Z,33.28
2022-10-23T23:45:02.521Z,33.92
2022-10-23T23:47:42.717Z,35.00
2022-10-23T23:50:14.129Z,33.55
2022-10-23T23:52:41.347Z,30.15
2022-10-23T23:55:11.004Z,31.73
2022-10-23T23:57:40.348Z,29.60
